GMFA weather

Ouezzane Airport
Beni Malek, T├ętouan Province, Morocco

Public forecast

Using degrees Celsius for public forecast. Weather courtesy of forecast.io.

METAR (pilot weather report)

Closest report is Saniat R'mel Airport, 51.1 nm (94.6 km) NNE. Retrieved 2019/09/23 15:00 UTC (3 minutes ago):

GMTN 231500Z 10008KT 060V130 CAVOK 26/14 Q1018 NOSIG

TAF (pilot weather forecast)

Closest forecast is Bassatine Airport, 54.6 nm (101.1 km) S. Retrieved 2019/09/23 12:18 UTC (3 hours ago):

TAF GMFM 231100Z 2312/2418 VRB02KT CAVOK BECMG 2412/2416 08006KT SCT020